Terminal Aerodrome Forecast
Issued by NWS Los Angeles, CA

Home | Current Version | Previous Version | Text Only | Print | Product List | Glossary On
Versions: 1 2 3 4 5 6 7 8 9 10 11 12 13 14 15 16 17 18 19 20 21 22
000
FTUS46 KLOX 310500 RRA
TAFSMX
TAF
KSMX 310540Z 3106/0106 29006KT 4SM BR SCT012
     FM310800 VRB03KT P6SM SKC
     FM311800 36005KT P6SM SKC
     FM312100 30010KT P6SM SKC
     FM010300 01004KT P6SM SKC=

USA.gov is the U.S. government's official web portal to all federal, state and local government web resources and services.